Terminal Aerodrome Forecast
Issued by NWS

Home | Current Version | Previous Version | Text Only | Print | Product List | Glossary On
Versions: 1 2 3 4 5 6 7 8 9 10 11 12 13 14 15 16
000
FTUS41 KLWX 061135
TAFMTN
TAF
KMTN 061135Z 0612/0712 01008KT 4SM RA BR OVC008
     FM061800 34006KT 5SM RA OVC008
     FM070000 VRB04KT 5SM -SHRA BR OVC008
     FM070300 14005KT 6SM BR OVC008
     FM070900 07005KT 6SM BR OVC008=

USA.gov is the U.S. government's official web portal to all federal, state and local government web resources and services.